Time;durP1;ratioP1;P1;durP2;ratioP2;P2;SDS_P1;SDS_P2;PMS_P1;PMS_P2;Temp;Humidity;BMP_temperature;BMP_pressure;BME280_temperature;BME280_humidity;BME280_pressure;Samples;Min_cycle;Max_cycle;Signal;HPM_P1;HPM_P2
2023/07/01 00:01:45;;;;;;;1.50;0.90;;;19.20;94.10;;;;;;4982968;28;20461;-79
2023/07/01 00:04:12;;;;;;;1.50;1.10;;;19.20;94.00;;;;;;4986043;28;20984;-79
2023/07/01 00:06:41;;;;;;;1.40;0.90;;;19.20;93.90;;;;;;4987633;28;20580;-81
2023/07/01 00:09:09;;;;;;;1.40;0.90;;;19.20;93.90;;;;;;4989490;28;20967;-78
2023/07/01 00:11:35;;;;;;;1.43;0.90;;;19.20;93.80;;;;;;4986086;28;20469;-79
2023/07/01 00:14:02;;;;;;;1.50;0.90;;;19.10;93.80;;;;;;4979870;28;20798;-79
2023/07/01 00:16:29;;;;;;;1.47;0.90;;;19.10;93.50;;;;;;4986961;28;20958;-79
2023/07/01 00:18:56;;;;;;;1.47;0.90;;;19.10;93.50;;;;;;4986529;28;21010;-79
2023/07/01 00:21:22;;;;;;;1.43;0.90;;;19.10;93.80;;;;;;4986542;28;20468;-79
2023/07/01 00:23:50;;;;;;;1.50;1.00;;;19.10;93.70;;;;;;4988648;28;20465;-78
2023/07/01 00:26:17;;;;;;;1.40;0.90;;;19.10;93.80;;;;;;4984358;28;20457;-79
2023/07/01 00:28:44;;;;;;;1.47;0.90;;;19.10;93.60;;;;;;4990288;28;20492;-79
2023/07/01 00:31:11;;;;;;;1.50;0.90;;;19.10;93.50;;;;;;4983565;28;20465;-79
2023/07/01 00:33:37;;;;;;;1.47;0.90;;;19.10;93.70;;;;;;4989171;28;20484;-80
2023/07/01 00:36:05;;;;;;;1.50;0.90;;;19.10;93.60;;;;;;4990898;28;20473;-79
2023/07/01 00:38:31;;;;;;;1.43;0.90;;;19.10;93.80;;;;;;4989674;28;20489;-79
2023/07/01 00:40:59;;;;;;;1.50;0.90;;;19.10;93.80;;;;;;4985525;28;21085;-79
2023/07/01 00:43:26;;;;;;;1.47;0.90;;;19.10;93.80;;;;;;4989827;28;21195;-79
2023/07/01 00:45:53;;;;;;;1.43;0.90;;;19.10;93.80;;;;;;4986176;28;20465;-80
2023/07/01 00:48:24;;;;;;;1.47;1.00;;;19.10;93.50;;;;;;4988891;28;20493;-80
2023/07/01 00:50:52;;;;;;;1.50;0.90;;;19.10;93.40;;;;;;4987946;28;20469;-79
2023/07/01 00:53:19;;;;;;;1.50;1.00;;;19.10;93.50;;;;;;4978980;28;20498;-79
2023/07/01 00:55:46;;;;;;;1.43;0.90;;;19.10;93.40;;;;;;4984783;28;20471;-80
2023/07/01 00:58:15;;;;;;;1.43;0.90;;;19.10;93.40;;;;;;4990895;28;20493;-79
2023/07/01 01:00:43;;;;;;;1.50;0.90;;;19.10;93.40;;;;;;4987836;28;20492;-79
2023/07/01 01:03:21;;;;;;;1.50;0.90;;;19.10;93.30;;;;;;4988933;28;20468;-79
2023/07/01 01:05:52;;;;;;;1.63;1.40;;;19.20;93.40;;;;;;4990315;28;20551;-78
2023/07/01 01:08:24;;;;;;;1.47;0.90;;;19.20;93.40;;;;;;4990570;28;20489;-78
2023/07/01 01:10:52;;;;;;;1.50;0.90;;;19.10;93.60;;;;;;4987720;28;20471;-79
2023/07/01 01:13:22;;;;;;;1.50;1.00;;;19.10;93.70;;;;;;4983114;28;20488;-79
2023/07/01 01:15:49;;;;;;;1.40;0.90;;;19.10;93.50;;;;;;4987239;28;20554;-79
2023/07/01 01:18:17;;;;;;;1.50;0.90;;;19.10;93.70;;;;;;4989294;28;20596;-79
2023/07/01 01:20:46;;;;;;;1.50;0.90;;;19.10;93.40;;;;;;4989608;28;20476;-79
2023/07/01 01:23:23;;;;;;;1.43;0.90;;;19.10;93.30;;;;;;4986279;28;20469;-80
2023/07/01 01:25:56;;;;;;;1.47;0.90;;;19.00;93.20;;;;;;4974011;28;20473;-79
2023/07/01 01:28:24;;;;;;;1.47;0.90;;;19.00;93.40;;;;;;4981382;28;20481;-80
2023/07/01 01:30:52;;;;;;;1.50;0.90;;;19.00;93.20;;;;;;4987345;28;20462;-79
2023/07/01 01:33:18;;;;;;;1.40;0.90;;;19.10;93.10;;;;;;4988844;28;20488;-79
2023/07/01 01:35:45;;;;;;;1.47;0.93;;;19.10;93.40;;;;;;4987311;28;20469;-79
2023/07/01 01:38:19;;;;;;;1.50;0.90;;;19.00;93.40;;;;;;4982153;28;20491;-79
2023/07/01 01:40:52;;;;;;;1.43;0.93;;;19.10;93.30;;;;;;4987821;28;20465;-79
2023/07/01 01:43:28;;;;;;;1.43;0.90;;;19.10;93.30;;;;;;4994472;28;20461;-79
2023/07/01 01:45:56;;;;;;;1.43;0.90;;;19.10;93.60;;;;;;4998022;28;20824;-79
2023/07/01 01:48:23;;;;;;;1.47;0.90;;;19.00;93.40;;;;;;5001797;28;20473;-80
2023/07/01 01:50:53;;;;;;;1.50;1.00;;;19.00;93.50;;;;;;4995290;28;20488;-79
2023/07/01 01:53:20;;;;;;;1.40;0.90;;;19.10;93.40;;;;;;4991262;28;20481;-79
2023/07/01 01:55:54;;;;;;;1.50;1.00;;;19.00;93.30;;;;;;4999869;28;20457;-79
2023/07/01 01:58:24;;;;;;;1.40;0.93;;;19.00;93.40;;;;;;4997075;28;20484;-80
2023/07/01 02:00:52;;;;;;;1.47;1.00;;;19.00;93.30;;;;;;4991329;28;20565;-79
2023/07/01 02:03:19;;;;;;;3.10;2.20;;;19.00;93.30;;;;;;4992573;28;20453;-79
2023/07/01 02:05:46;;;;;;;1.47;0.90;;;19.00;93.20;;;;;;4994595;28;20450;-79
2023/07/01 02:08:13;;;;;;;1.50;0.90;;;19.00;93.10;;;;;;4992141;28;20482;-79
2023/07/01 02:10:39;;;;;;;1.50;1.00;;;19.00;93.20;;;;;;4992372;28;20464;-80
2023/07/01 02:13:06;;;;;;;1.40;0.90;;;19.00;93.20;;;;;;4987832;28;20492;-80
2023/07/01 02:15:33;;;;;;;1.40;1.00;;;19.00;93.10;;;;;;4990682;28;20465;-80
2023/07/01 02:18:03;;;;;;;1.47;1.00;;;19.00;93.00;;;;;;4984966;28;20496;-80
2023/07/01 02:20:30;;;;;;;1.47;0.90;;;19.00;93.00;;;;;;4987656;28;20469;-80
2023/07/01 02:22:57;;;;;;;1.40;0.90;;;19.00;92.90;;;;;;4991882;28;20944;-79
2023/07/01 02:25:24;;;;;;;1.43;0.90;;;19.00;93.00;;;;;;4990262;28;20846;-81
2023/07/01 02:27:50;;;;;;;1.47;1.00;;;19.00;92.90;;;;;;4982506;28;21018;-80
2023/07/01 02:30:17;;;;;;;1.47;1.00;;;19.00;93.10;;;;;;4988893;28;20470;-79
2023/07/01 02:32:44;;;;;;;1.40;0.90;;;19.00;92.70;;;;;;4984992;28;20536;-79
2023/07/01 02:35:12;;;;;;;1.47;0.90;;;19.00;92.60;;;;;;4985349;28;20466;-79
2023/07/01 02:37:39;;;;;;;1.43;0.90;;;19.00;92.70;;;;;;4989593;28;20485;-80
2023/07/01 02:40:08;;;;;;;1.47;0.90;;;19.00;92.70;;;;;;4989791;28;20467;-79
2023/07/01 02:42:35;;;;;;;1.43;0.90;;;19.00;92.80;;;;;;4990362;28;20954;-79
2023/07/01 02:45:04;;;;;;;1.50;0.90;;;19.00;92.70;;;;;;4985616;28;20473;-80
2023/07/01 02:47:31;;;;;;;1.40;0.90;;;19.00;92.70;;;;;;4990952;28;20515;-80
2023/07/01 02:49:58;;;;;;;1.50;0.90;;;19.00;92.90;;;;;;4991148;28;20468;-80
2023/07/01 02:52:26;;;;;;;1.43;0.90;;;19.10;92.60;;;;;;4988045;28;20528;-79
2023/07/01 02:54:53;;;;;;;1.47;0.90;;;19.00;92.70;;;;;;4989456;28;20500;-79
2023/07/01 02:57:19;;;;;;;1.40;0.90;;;19.00;92.40;;;;;;4990296;28;21031;-79
2023/07/01 02:59:48;;;;;;;1.47;0.90;;;19.10;92.60;;;;;;4991710;28;20465;-79
2023/07/01 03:02:15;;;;;;;1.50;0.90;;;19.10;92.60;;;;;;4981615;28;20519;-79
2023/07/01 03:04:42;;;;;;;1.40;0.90;;;19.10;92.40;;;;;;4989451;28;20461;-80
2023/07/01 03:07:09;;;;;;;1.50;0.90;;;19.10;92.50;;;;;;4990557;28;20484;-78
2023/07/01 03:09:37;;;;;;;1.47;0.90;;;19.10;92.70;;;;;;4990655;28;20600;-80
2023/07/01 03:12:04;;;;;;;1.40;0.90;;;19.10;92.20;;;;;;4986977;28;20549;-79
2023/07/01 03:14:31;;;;;;;1.40;0.90;;;19.10;92.40;;;;;;4989241;28;20493;-79
2023/07/01 03:16:58;;;;;;;1.50;1.10;;;19.10;92.30;;;;;;4988288;28;20461;-79
2023/07/01 03:19:24;;;;;;;1.40;0.90;;;19.10;92.20;;;;;;4985121;28;20467;-79
2023/07/01 03:21:51;;;;;;;1.50;0.90;;;19.10;92.70;;;;;;4992941;28;20471;-80
2023/07/01 03:24:18;;;;;;;1.50;1.00;;;19.10;92.40;;;;;;5019408;22;21179;-82
2023/07/01 03:26:46;;;;;;;1.43;0.90;;;19.10;92.10;;;;;;5017799;28;20448;-86
2023/07/01 03:29:13;;;;;;;1.43;0.90;;;19.10;92.30;;;;;;5020410;28;20459;-84
2023/07/01 03:31:40;;;;;;;1.43;0.90;;;19.10;92.20;;;;;;5018482;28;20464;-82
2023/07/01 03:34:06;;;;;;;1.57;1.27;;;19.10;92.20;;;;;;5020661;28;20499;-83
2023/07/01 03:36:33;;;;;;;1.40;0.90;;;19.10;92.20;;;;;;5010663;28;20493;-82
2023/07/01 03:39:01;;;;;;;1.40;0.90;;;19.10;92.30;;;;;;5015061;28;20494;-81
2023/07/01 03:41:28;;;;;;;1.43;0.90;;;19.10;92.20;;;;;;5015242;28;20460;-81
2023/07/01 03:43:56;;;;;;;1.47;0.90;;;19.10;92.90;;;;;;5017322;28;20483;-86
2023/07/01 03:46:23;;;;;;;1.50;0.90;;;19.10;93.40;;;;;;5012381;28;20516;-86
2023/07/01 03:48:50;;;;;;;1.47;1.00;;;19.10;93.30;;;;;;5015819;28;20524;-83
2023/07/01 03:51:16;;;;;;;1.47;0.90;;;19.00;93.00;;;;;;5019575;28;20467;-85
2023/07/01 03:53:43;;;;;;;1.47;0.90;;;19.00;93.10;;;;;;5020458;28;20488;-82
2023/07/01 03:56:10;;;;;;;1.43;0.90;;;18.90;93.20;;;;;;5019102;28;20491;-87
2023/07/01 03:58:37;;;;;;;1.40;0.90;;;18.90;93.30;;;;;;5024176;28;20466;-82
2023/07/01 04:01:05;;;;;;;1.50;0.93;;;18.90;93.20;;;;;;5021324;28;20464;-87
2023/07/01 04:03:33;;;;;;;1.47;0.90;;;19.00;93.10;;;;;;5022473;28;20802;-86
2023/07/01 04:05:59;;;;;;;1.43;0.90;;;19.00;92.90;;;;;;5023407;28;20466;-82
2023/07/01 04:08:27;;;;;;;1.47;0.90;;;19.00;92.80;;;;;;5021671;28;20464;-82
2023/07/01 04:10:54;;;;;;;1.40;0.90;;;19.00;92.90;;;;;;5024615;28;20462;-83
2023/07/01 04:13:21;;;;;;;1.43;0.90;;;19.10;92.90;;;;;;5020227;28;20491;-87
2023/07/01 04:15:47;;;;;;;1.43;0.90;;;19.10;92.80;;;;;;5023296;28;20461;-86
2023/07/01 04:18:16;;;;;;;1.50;1.00;;;19.10;92.70;;;;;;5019754;28;21249;-87
2023/07/01 04:20:42;;;;;;;1.47;0.90;;;19.10;92.70;;;;;;5005495;28;21031;-88
2023/07/01 04:23:09;;;;;;;1.60;1.20;;;19.10;92.50;;;;;;5002531;28;20475;-82
2023/07/01 04:25:36;;;;;;;1.47;0.90;;;19.10;92.80;;;;;;5008622;28;20470;-84
2023/07/01 04:28:04;;;;;;;1.40;0.90;;;19.10;92.60;;;;;;5008453;28;20496;-83
2023/07/01 04:30:31;;;;;;;1.40;0.90;;;19.10;92.50;;;;;;5004230;28;20456;-81
2023/07/01 04:32:57;;;;;;;1.40;0.90;;;19.10;92.30;;;;;;5006404;28;20468;-84
2023/07/01 04:35:26;;;;;;;1.40;0.90;;;19.10;92.30;;;;;;5003894;28;20471;-80
2023/07/01 04:37:53;;;;;;;1.47;0.90;;;19.10;92.50;;;;;;5001381;28;20453;-80
2023/07/01 04:40:20;;;;;;;1.40;0.90;;;19.20;92.60;;;;;;5006553;28;20468;-83
2023/07/01 04:42:49;;;;;;;1.47;0.90;;;19.20;92.60;;;;;;5008091;28;20464;-83
2023/07/01 04:45:18;;;;;;;1.40;0.90;;;19.20;92.40;;;;;;5008913;28;20452;-81
2023/07/01 04:47:45;;;;;;;1.43;0.90;;;19.30;92.30;;;;;;5011287;28;20496;-87
2023/07/01 04:50:13;;;;;;;1.43;0.90;;;19.30;92.00;;;;;;5007668;28;20464;-83
2023/07/01 04:52:41;;;;;;;1.47;0.90;;;19.30;91.90;;;;;;5007789;28;20496;-84
2023/07/01 04:55:08;;;;;;;1.40;0.90;;;19.40;92.10;;;;;;5007718;28;20500;-84
2023/07/01 04:57:35;;;;;;;1.50;0.90;;;19.40;91.90;;;;;;5008901;28;20916;-81
2023/07/01 05:00:05;;;;;;;1.50;0.90;;;19.40;91.70;;;;;;5006917;28;21026;-85
2023/07/01 05:02:34;;;;;;;1.40;0.90;;;19.40;91.60;;;;;;5000001;28;20471;-79
2023/07/01 05:05:01;;;;;;;1.40;0.90;;;19.40;91.20;;;;;;5011795;28;20712;-85
2023/07/01 05:07:28;;;;;;;1.40;0.90;;;19.40;91.30;;;;;;5008233;28;20468;-84
2023/07/01 05:09:56;;;;;;;1.47;0.90;;;19.40;91.50;;;;;;5003495;28;20465;-85
2023/07/01 05:12:23;;;;;;;1.50;0.90;;;19.50;91.70;;;;;;5004851;28;21110;-85
2023/07/01 05:14:50;;;;;;;1.43;0.90;;;19.50;91.50;;;;;;5006598;28;21087;-80
2023/07/01 05:17:16;;;;;;;1.50;0.90;;;19.50;91.60;;;;;;5005998;28;20460;-85
2023/07/01 05:19:43;;;;;;;1.43;0.90;;;19.60;91.30;;;;;;5008734;28;20468;-83
2023/07/01 05:22:10;;;;;;;1.47;0.90;;;19.60;91.10;;;;;;5009968;28;20469;-80
2023/07/01 05:24:41;;;;;;;1.40;0.90;;;19.60;91.20;;;;;;5007881;28;20907;-84
2023/07/01 05:27:09;;;;;;;1.47;0.90;;;19.60;91.30;;;;;;5004286;28;20453;-85
2023/07/01 05:29:36;;;;;;;1.47;0.90;;;19.60;91.10;;;;;;5006558;28;20479;-88
2023/07/01 05:32:04;;;;;;;1.50;1.00;;;19.70;90.80;;;;;;5007381;28;20463;-84
2023/07/01 05:34:31;;;;;;;1.43;0.90;;;19.70;90.60;;;;;;5006299;28;21014;-80
2023/07/01 05:36:57;;;;;;;1.50;0.90;;;19.70;90.80;;;;;;5003500;28;20532;-84
2023/07/01 05:39:25;;;;;;;1.43;0.90;;;19.80;90.60;;;;;;5002134;28;20473;-84
2023/07/01 05:41:52;;;;;;;1.47;0.90;;;19.80;90.60;;;;;;5000179;28;20548;-85
2023/07/01 05:44:20;;;;;;;1.50;0.90;;;19.80;90.60;;;;;;4995982;28;20538;-84
2023/07/01 05:46:47;;;;;;;1.50;1.10;;;20.00;90.40;;;;;;5000917;28;20561;-87
2023/07/01 05:49:18;;;;;;;1.47;0.90;;;20.10;90.20;;;;;;5008578;28;20486;-85
2023/07/01 05:51:51;;;;;;;1.50;0.90;;;20.20;90.30;;;;;;5000410;28;20566;-82
2023/07/01 05:54:18;;;;;;;1.50;0.90;;;20.40;89.90;;;;;;5005859;28;20480;-85
2023/07/01 05:56:48;;;;;;;1.47;0.90;;;20.50;90.20;;;;;;4997864;28;20465;-81
2023/07/01 05:59:14;;;;;;;1.50;0.90;;;20.60;90.00;;;;;;5002193;28;20481;-81
2023/07/01 06:01:45;;;;;;;1.47;0.90;;;20.60;91.00;;;;;;5003867;28;20461;-86
2023/07/01 06:04:12;;;;;;;1.50;0.90;;;20.60;91.10;;;;;;5002550;28;20580;-82
2023/07/01 06:06:39;;;;;;;1.43;0.90;;;20.60;92.80;;;;;;5004853;28;20473;-84
2023/07/01 06:09:10;;;;;;;1.47;0.90;;;20.50;92.60;;;;;;5005643;28;20480;-87
2023/07/01 06:11:37;;;;;;;1.50;0.90;;;20.50;92.20;;;;;;5006892;28;20496;-84
2023/07/01 06:14:03;;;;;;;1.47;0.90;;;20.40;92.30;;;;;;4994851;28;20493;-83
2023/07/01 06:16:30;;;;;;;1.47;0.90;;;20.40;93.30;;;;;;4994656;28;20464;-83
2023/07/01 06:18:58;;;;;;;1.50;0.90;;;20.40;94.00;;;;;;4998069;28;20471;-88
2023/07/01 06:21:25;;;;;;;1.43;0.90;;;20.30;93.90;;;;;;4995446;28;20495;-81
2023/07/01 06:23:55;;;;;;;1.50;0.90;;;20.20;93.50;;;;;;4994676;28;20499;-87
2023/07/01 06:26:22;;;;;;;1.50;0.90;;;20.10;94.90;;;;;;4996585;28;20475;-86
2023/07/01 06:28:49;;;;;;;1.43;0.90;;;20.00;95.50;;;;;;4997269;28;20548;-85
2023/07/01 06:31:16;;;;;;;1.47;0.90;;;20.00;96.10;;;;;;4997272;28;20556;-83
2023/07/01 06:33:44;;;;;;;1.50;0.90;;;19.90;96.60;;;;;;4999285;28;20479;-83
2023/07/01 06:36:14;;;;;;;1.50;0.90;;;19.90;96.90;;;;;;5000348;28;20467;-86
2023/07/01 06:38:41;;;;;;;1.50;0.90;;;19.80;97.80;;;;;;4998769;28;20466;-82
2023/07/01 06:41:10;;;;;;;1.50;1.00;;;19.80;98.20;;;;;;5002368;28;20465;-83
2023/07/01 06:43:57;;;;;;;1.50;0.90;;;19.70;98.20;;;;;;4994721;28;20481;-84
2023/07/01 06:46:24;;;;;;;1.50;1.00;;;19.70;98.20;;;;;;4995345;28;20498;-83
2023/07/01 06:49:09;;;;;;;1.47;0.90;;;19.60;98.20;;;;;;4999568;28;20477;-83
2023/07/01 06:51:37;;;;;;;1.50;0.90;;;19.50;98.20;;;;;;4995231;28;20469;-83
2023/07/01 06:54:12;;;;;;;1.47;0.90;;;19.50;98.20;;;;;;4995629;28;20523;-83
2023/07/01 06:57:02;;;;;;;1.50;1.00;;;19.40;98.20;;;;;;4995810;28;21010;-82
2023/07/01 06:59:37;;;;;;;1.40;0.90;;;19.50;98.20;;;;;;4996811;28;20457;-83
2023/07/01 07:02:05;;;;;;;1.43;0.90;;;19.60;98.20;;;;;;4992824;28;20460;-85
2023/07/01 07:04:32;;;;;;;1.43;0.90;;;19.60;98.20;;;;;;4991558;28;21007;-84
2023/07/01 07:07:00;;;;;;;1.47;0.90;;;19.60;98.20;;;;;;4991664;28;20919;-80
2023/07/01 07:09:33;;;;;;;1.47;0.90;;;19.70;98.20;;;;;;4992429;28;20465;-83
2023/07/01 07:11:59;;;;;;;1.47;1.00;;;19.70;98.20;;;;;;4991752;28;20481;-83
2023/07/01 07:14:50;;;;;;;1.40;0.90;;;19.70;98.20;;;;;;4991562;28;20942;-83
2023/07/01 07:17:16;;;;;;;1.50;0.90;;;19.80;98.20;;;;;;4994060;28;20555;-79
2023/07/01 07:19:43;;;;;;;1.43;0.90;;;19.80;98.20;;;;;;4988968;28;20468;-80
2023/07/01 07:22:12;;;;;;;1.47;0.90;;;19.80;98.20;;;;;;4996966;28;20901;-79
2023/07/01 07:24:39;;;;;;;1.50;0.90;;;19.80;98.20;;;;;;4993597;28;20491;-80
2023/07/01 07:27:07;;;;;;;1.47;0.90;;;19.70;98.20;;;;;;4981950;28;20468;-79
2023/07/01 07:32:24;;;;;;;1.47;0.90;;;19.70;98.20;;;;;;4991813;28;20467;-80
2023/07/01 07:34:51;;;;;;;1.43;0.90;;;19.70;98.20;;;;;;4997813;28;20485;-82
2023/07/01 07:37:22;;;;;;;1.43;0.90;;;19.60;98.20;;;;;;4997441;28;20459;-81
2023/07/01 07:39:53;;;;;;;1.47;0.90;;;19.60;98.20;;;;;;4995145;28;20528;-81
2023/07/01 07:42:20;;;;;;;1.50;1.00;;;19.50;98.20;;;;;;4989203;28;20467;-81
2023/07/01 07:44:47;;;;;;;1.47;0.90;;;19.50;98.20;;;;;;4991596;28;20476;-81
2023/07/01 07:47:15;;;;;;;1.50;0.90;;;19.40;98.20;;;;;;4993583;28;20472;-80
2023/07/01 07:49:42;;;;;;;1.47;0.90;;;19.40;98.20;;;;;;4995240;28;20571;-82
2023/07/01 07:52:09;;;;;;;1.47;0.90;;;19.40;98.20;;;;;;4993382;28;20483;-81
2023/07/01 07:55:22;;;;;;;1.47;0.90;;;19.30;98.20;;;;;;4994188;28;20476;-82
2023/07/01 07:57:53;;;;;;;1.47;0.90;;;19.40;98.20;;;;;;4991914;28;20470;-83
2023/07/01 08:00:22;;;;;;;1.40;0.90;;;19.40;98.20;;;;;;4992310;28;20516;-83
2023/07/01 08:02:49;;;;;;;1.43;0.90;;;19.50;98.20;;;;;;4988844;28;20469;-82
2023/07/01 08:05:17;;;;;;;1.47;0.90;;;19.60;98.20;;;;;;4991639;28;20464;-83
2023/07/01 08:07:44;;;;;;;1.40;0.90;;;19.60;98.20;;;;;;4989108;28;20473;-81
2023/07/01 08:10:13;;;;;;;1.47;0.90;;;19.60;98.20;;;;;;4987479;28;20461;-80
2023/07/01 08:13:05;;;;;;;1.47;0.90;;;19.60;98.20;;;;;;4988910;28;21006;-81
2023/07/01 08:15:32;;;;;;;1.43;0.90;;;19.60;98.20;;;;;;4990367;28;20499;-80
2023/07/01 08:18:16;;;;;;;1.40;0.90;;;19.60;98.20;;;;;;4995939;28;20789;-83
2023/07/01 08:23:35;;;;;;;1.47;0.90;;;19.40;98.20;;;;;;4993562;28;20573;-83
2023/07/01 08:26:03;;;;;;;1.47;0.90;;;19.50;98.20;;;;;;4996909;28;21006;-83
2023/07/01 08:34:24;;;;;;;1.50;0.90;;;19.70;98.20;;;;;;4988915;28;20512;-85
2023/07/01 08:36:51;;;;;;;1.47;0.90;;;19.90;98.20;;;;;;4996971;28;20469;-82
2023/07/01 08:39:18;;;;;;;1.50;1.00;;;20.10;98.20;;;;;;4991750;28;20860;-83
2023/07/01 08:41:51;;;;;;;1.50;0.90;;;20.20;98.20;;;;;;4991714;28;20474;-83
2023/07/01 08:44:20;;;;;;;1.50;0.90;;;20.30;98.20;;;;;;4988226;28;20921;-82
2023/07/01 08:46:48;;;;;;;1.47;0.90;;;20.40;98.20;;;;;;4990899;28;20465;-81
2023/07/01 08:49:20;;;;;;;1.50;0.90;;;20.40;98.20;;;;;;4991130;28;20474;-82
2023/07/01 08:51:47;;;;;;;1.47;0.90;;;20.40;98.20;;;;;;4994258;28;20461;-82
2023/07/01 08:54:34;;;;;;;1.50;0.90;;;20.40;98.20;;;;;;4995278;28;20869;-81
2023/07/01 08:57:27;;;;;;;1.50;0.90;;;20.30;98.20;;;;;;4988733;28;20741;-84
2023/07/01 08:59:55;;;;;;;1.50;0.90;;;20.30;98.20;;;;;;4991167;28;20624;-81
2023/07/01 09:02:25;;;;;;;1.50;0.90;;;20.40;98.20;;;;;;4989957;28;20551;-84
2023/07/01 09:04:52;;;;;;;1.43;0.90;;;20.40;98.20;;;;;;4994942;28;20503;-82
2023/07/01 09:07:19;;;;;;;1.50;1.00;;;20.50;98.20;;;;;;4996129;28;20548;-82
2023/07/01 09:09:46;;;;;;;1.50;0.90;;;20.60;98.20;;;;;;4995027;28;20530;-82
2023/07/01 09:12:12;;;;;;;1.50;0.90;;;20.60;98.20;;;;;;4991289;28;20560;-80
2023/07/01 09:15:01;;;;;;;1.40;0.90;;;20.60;98.20;;;;;;4988661;28;20884;-78
2023/07/01 09:17:30;;;;;;;1.47;0.90;;;20.60;98.20;;;;;;4987439;28;20484;-81
2023/07/01 09:19:59;;;;;;;1.50;0.90;;;20.40;98.20;;;;;;4992779;28;20549;-81
2023/07/01 09:22:26;;;;;;;1.47;0.90;;;20.40;98.20;;;;;;4994742;28;20465;-80
2023/07/01 09:24:53;;;;;;;1.47;0.90;;;20.20;98.20;;;;;;4994327;28;20571;-83
2023/07/01 09:27:20;;;;;;;1.50;0.90;;;20.10;98.20;;;;;;4995778;28;20456;-81
2023/07/01 09:29:47;;;;;;;1.43;0.90;;;20.00;98.20;;;;;;4998523;28;20462;-82
2023/07/01 09:32:28;;;;;;;1.50;1.00;;;20.00;98.20;;;;;;4991445;28;20468;-81
2023/07/01 09:35:04;;;;;;;1.50;0.90;;;19.90;98.20;;;;;;4990695;28;20532;-82
2023/07/01 09:37:31;;;;;;;1.47;0.90;;;19.90;98.20;;;;;;4994866;28;20978;-82
2023/07/01 09:39:57;;;;;;;1.50;0.90;;;19.80;98.20;;;;;;4993224;28;20465;-83
2023/07/01 09:42:36;;;;;;;1.50;0.90;;;19.80;98.20;;;;;;4988693;28;20468;-84
2023/07/01 09:45:07;;;;;;;1.47;0.93;;;19.80;98.20;;;;;;4990215;28;20487;-81
2023/07/01 09:47:36;;;;;;;1.50;0.90;;;19.70;98.20;;;;;;4994795;28;20471;-80
2023/07/01 09:50:03;;;;;;;1.50;0.90;;;19.80;98.20;;;;;;4991095;28;20471;-83
2023/07/01 09:52:34;;;;;;;1.47;0.90;;;19.80;98.20;;;;;;4989555;28;20472;-84
2023/07/01 09:55:03;;;;;;;1.50;0.90;;;19.90;98.20;;;;;;4988139;28;20849;-85
2023/07/01 09:57:32;;;;;;;1.50;0.90;;;19.90;98.20;;;;;;4998126;28;20524;-80
2023/07/01 10:00:01;;;;;;;1.47;0.90;;;19.90;98.20;;;;;;4992540;28;20469;-82
2023/07/01 10:02:28;;;;;;;1.43;0.90;;;19.90;98.20;;;;;;4985638;28;21186;-81
2023/07/01 10:05:08;;;;;;;1.50;1.00;;;19.90;98.20;;;;;;4990152;28;20484;-81
2023/07/01 10:07:35;;;;;;;1.47;0.90;;;19.90;98.20;;;;;;4994433;28;20465;-80
2023/07/01 10:10:05;;;;;;;1.47;0.90;;;20.00;98.20;;;;;;4997004;28;20470;-80
2023/07/01 10:15:48;;;;;;;1.50;0.90;;;20.20;98.20;;;;;;4936717;28;20544;-81
2023/07/01 10:18:46;;;;;;;1.43;0.90;;;20.30;98.20;;;;;;4989203;28;20515;-82
2023/07/01 10:21:47;;;;;;;1.50;0.90;;;20.40;98.20;;;;;;4986909;28;20501;-81
2023/07/01 10:31:18;;;;;;;1.50;0.90;;;20.70;98.20;;;;;;4940543;28;20977;-80
2023/07/01 10:34:00;;;;;;;1.50;0.90;;;20.80;98.20;;;;;;4976248;28;20497;-80
2023/07/01 10:36:28;;;;;;;1.50;0.90;;;20.70;98.20;;;;;;4982424;28;21014;-83
2023/07/01 10:42:31;;;;;;;1.47;0.90;;;20.70;98.20;;;;;;4989547;28;20464;-80
2023/07/01 10:45:30;;;;;;;1.47;0.90;;;20.70;98.20;;;;;;4978618;28;21112;-80
2023/07/01 10:48:13;;;;;;;1.50;0.90;;;20.70;98.20;;;;;;4969152;28;20461;-79
2023/07/01 10:51:02;;;;;;;1.47;0.90;;;20.70;98.20;;;;;;4980711;28;20584;-79
2023/07/01 10:53:32;;;;;;;1.50;0.90;;;20.70;98.20;;;;;;4976881;28;21082;-78
2023/07/01 10:56:15;;;;;;;1.40;0.90;;;20.70;98.20;;;;;;4980225;28;20520;-78
2023/07/01 10:58:48;;;;;;;1.50;0.90;;;20.60;98.20;;;;;;4978404;28;20990;-79
2023/07/01 11:01:43;;;;;;;1.47;0.90;;;20.60;98.20;;;;;;4979856;28;20465;-79
2023/07/01 11:04:10;;;;;;;1.47;0.90;;;20.60;98.20;;;;;;4977397;28;20705;-81
2023/07/01 11:07:11;;;;;;;1.47;0.90;;;20.60;98.20;;;;;;4980943;28;20475;-79
2023/07/01 11:09:41;;;;;;;1.50;0.90;;;20.60;98.20;;;;;;4978040;28;20495;-79
2023/07/01 11:12:15;;;;;;;1.50;0.90;;;20.50;98.20;;;;;;4979724;28;20467;-80
2023/07/01 11:14:46;;;;;;;1.43;0.90;;;20.50;98.20;;;;;;4980830;28;20548;-82
2023/07/01 11:17:16;;;;;;;1.47;0.90;;;20.50;98.20;;;;;;4983849;28;20543;-80
2023/07/01 11:19:45;;;;;;;1.50;0.90;;;20.50;98.20;;;;;;4981965;28;20483;-82
2023/07/01 11:22:12;;;;;;;1.50;0.90;;;20.50;98.20;;;;;;4981647;28;20473;-79
2023/07/01 11:24:39;;;;;;;1.47;0.90;;;20.50;98.20;;;;;;4979249;28;20488;-76
2023/07/01 11:27:17;;;;;;;1.50;0.90;;;20.50;98.20;;;;;;4978459;28;20472;-79
2023/07/01 11:29:47;;;;;;;1.50;0.90;;;20.40;98.20;;;;;;4982432;28;21016;-79
2023/07/01 11:32:15;;;;;;;1.50;0.90;;;20.40;98.20;;;;;;4979211;28;20476;-78
2023/07/01 11:34:42;;;;;;;1.47;0.90;;;20.40;98.20;;;;;;4975468;28;20496;-79
2023/07/01 11:37:09;;;;;;;1.47;0.90;;;20.30;98.20;;;;;;4978991;28;20653;-77
2023/07/01 11:39:44;;;;;;;1.50;0.90;;;20.40;98.20;;;;;;4978776;28;20481;-79
2023/07/01 11:42:11;;;;;;;1.47;0.90;;;20.40;98.20;;;;;;4979035;28;20899;-80
2023/07/01 11:44:39;;;;;;;1.50;1.00;;;20.40;98.20;;;;;;4977633;28;20488;-78
2023/07/01 11:47:13;;;;;;;1.47;0.90;;;20.50;98.20;;;;;;4979671;28;20592;-79
2023/07/01 11:49:41;;;;;;;1.47;0.90;;;20.60;98.20;;;;;;4978960;28;20478;-80
2023/07/01 11:52:08;;;;;;;1.40;0.90;;;20.70;98.20;;;;;;4979064;28;20501;-79
2023/07/01 11:54:46;;;;;;;1.43;0.90;;;20.80;98.20;;;;;;4979762;28;20501;-78
2023/07/01 11:57:15;;;;;;;1.47;0.90;;;20.80;98.20;;;;;;4979998;28;20860;-79
2023/07/01 11:59:43;;;;;;;1.47;0.90;;;20.90;98.20;;;;;;4980980;28;20480;-79
2023/07/01 12:02:27;;;;;;;1.47;0.90;;;20.90;98.20;;;;;;4979947;28;20756;-78
2023/07/01 12:04:54;;;;;;;1.47;0.87;;;20.90;98.20;;;;;;4976124;28;20496;-78
2023/07/01 12:07:54;;;;;;;1.47;0.90;;;21.00;98.20;;;;;;4980389;28;20469;-78
2023/07/01 12:10:25;;;;;;;1.40;0.90;;;21.00;98.20;;;;;;4973241;28;20575;-78
2023/07/01 12:13:38;;;;;;;1.47;0.90;;;21.10;98.20;;;;;;4981231;28;21278;-77
2023/07/01 12:16:11;;;;;;;1.50;0.90;;;21.10;98.20;;;;;;4980186;28;21007;-78
2023/07/01 12:19:02;;;;;;;1.50;0.90;;;21.10;98.20;;;;;;4981916;28;20473;-79
2023/07/01 12:27:31;;;;;;;1.50;0.90;;;21.10;98.20;;;;;;4956071;28;20685;-79
2023/07/01 12:30:07;;;;;;;1.47;0.90;;;21.10;98.20;;;;;;4955165;28;20473;-78
2023/07/01 12:33:15;;;;;;;1.50;0.90;;;21.10;98.20;;;;;;4957703;28;20707;-79
2023/07/01 12:35:44;;;;;;;1.43;0.90;;;21.20;98.20;;;;;;4882423;29;20500;-79
2023/07/01 12:38:24;;;;;;;1.50;0.90;;;21.20;98.20;;;;;;4884786;29;20480;-78
2023/07/01 12:40:57;;;;;;;1.50;0.90;;;21.20;98.20;;;;;;4932115;28;20553;-79
2023/07/01 12:43:27;;;;;;;1.47;0.90;;;21.30;98.20;;;;;;4959390;28;20564;-79
2023/07/01 12:45:55;;;;;;;1.47;0.90;;;21.30;98.20;;;;;;4958303;28;20458;-77
2023/07/01 12:48:23;;;;;;;1.50;0.90;;;21.40;98.20;;;;;;4959432;28;20563;-78
2023/07/01 12:50:52;;;;;;;1.47;0.90;;;21.40;98.20;;;;;;4959081;28;20483;-76
2023/07/01 12:53:20;;;;;;;1.47;0.90;;;21.40;98.20;;;;;;4960100;28;20517;-78
2023/07/01 12:55:50;;;;;;;1.50;0.90;;;21.30;98.20;;;;;;4952636;28;20509;-79
2023/07/01 12:58:19;;;;;;;1.50;0.90;;;21.30;98.20;;;;;;4956722;28;20474;-78
2023/07/01 13:00:48;;;;;;;1.50;0.90;;;21.30;98.20;;;;;;4955278;28;20957;-77
2023/07/01 13:03:15;;;;;;;1.50;0.90;;;21.30;98.20;;;;;;4955062;28;21044;-78
2023/07/01 13:05:49;;;;;;;1.47;0.90;;;21.30;98.20;;;;;;4955328;28;20937;-79
2023/07/01 13:08:29;;;;;;;1.47;0.90;;;21.30;98.20;;;;;;4960259;28;20473;-78
2023/07/01 13:11:14;;;;;;;1.50;0.90;;;21.40;98.20;;;;;;4955330;28;21011;-77
2023/07/01 13:13:51;;;;;;;1.50;0.90;;;21.40;98.20;;;;;;4955434;28;20538;-77
2023/07/01 13:16:31;;;;;;;1.47;0.90;;;21.40;98.20;;;;;;4958291;28;20481;-76
2023/07/01 13:19:04;;;;;;;1.50;0.90;;;21.40;98.20;;;;;;4955108;28;20475;-79
2023/07/01 13:21:37;;;;;;;1.50;0.90;;;21.30;98.20;;;;;;4955394;28;20482;-80
2023/07/01 13:24:30;;;;;;;1.50;0.90;;;21.30;98.20;;;;;;4953495;28;20504;-78
2023/07/01 13:27:05;;;;;;;1.47;0.90;;;21.30;98.20;;;;;;4958374;28;20670;-81
2023/07/01 13:29:35;;;;;;;1.50;0.90;;;21.30;98.20;;;;;;4960166;28;20533;-79
2023/07/01 13:32:05;;;;;;;1.50;0.90;;;21.20;98.20;;;;;;4957893;28;20470;-82
2023/07/01 13:34:41;;;;;;;1.47;0.90;;;21.20;98.20;;;;;;4960518;28;20562;-81
2023/07/01 13:37:33;;;;;;;1.47;0.90;;;21.20;98.20;;;;;;4956048;28;20870;-78